Time;durP1;ratioP1;P1;durP2;ratioP2;P2;SDS_P1;SDS_P2;PMS_P1;PMS_P2;Temp;Humidity;BMP_temperature;BMP_pressure;BME280_temperature;BME280_humidity;BME280_pressure;Samples;Min_cycle;Max_cycle;Signal;HPM_P1;HPM_P2
2022/04/16 00:02:00;;;;;;;8.23;6.53;;;;;;;;;;7632034;23;20024;-77
2022/04/16 00:05:05;;;;;;;11.20;6.82;;;;;;;;;;7637070;23;20025;-78
2022/04/16 00:08:08;;;;;;;10.65;6.43;;;;;;;;;;7647522;23;20456;-79
2022/04/16 00:11:11;;;;;;;8.85;6.63;;;;;;;;;;7634992;23;20045;-78
2022/04/16 00:14:15;;;;;;;9.52;6.75;;;;;;;;;;7635701;23;20032;-77
2022/04/16 00:17:18;;;;;;;11.32;7.47;;;;;;;;;;7636640;23;20022;-76
2022/04/16 00:20:24;;;;;;;11.68;7.68;;;;;;;;;;7637826;23;20021;-76
2022/04/16 00:23:27;;;;;;;12.45;7.53;;;;;;;;;;7648137;23;20064;-79
2022/04/16 00:26:33;;;;;;;;;;;;;;;;;;7649303;23;20333;-77
2022/04/16 00:29:36;;;;;;;18.10;7.70;;;;;;;;;;7636431;23;19917;-76
2022/04/16 00:32:40;;;;;;;12.25;8.07;;;;;;;;;;7634561;23;20021;-77
2022/04/16 00:35:44;;;;;;;12.20;8.00;;;;;;;;;;7637346;23;20021;-76
2022/04/16 00:38:47;;;;;;;10.20;7.60;;;;;;;;;;7636862;23;20028;-77
2022/04/16 00:41:50;;;;;;;12.52;8.25;;;;;;;;;;7635703;23;20020;-78
2022/04/16 00:44:53;;;;;;;12.32;8.38;;;;;;;;;;7634557;23;20021;-78
2022/04/16 00:47:59;;;;;;;11.32;8.15;;;;;;;;;;7648514;23;20028;-77
2022/04/16 00:51:03;;;;;;;11.88;8.23;;;;;;;;;;7637434;23;20021;-77
2022/04/16 00:54:08;;;;;;;10.52;7.80;;;;;;;;;;7646076;23;20044;-77
2022/04/16 00:57:11;;;;;;;11.18;7.85;;;;;;;;;;7635554;23;20545;-78
2022/04/16 01:00:14;;;;;;;12.27;8.43;;;;;;;;;;7637592;23;20028;-76
2022/04/16 01:03:18;;;;;;;10.75;7.63;;;;;;;;;;7634748;23;20021;-77
2022/04/16 01:06:22;;;;;;;11.25;7.95;;;;;;;;;;7636131;23;20025;-78
2022/04/16 01:09:25;;;;;;;10.85;7.90;;;;;;;;;;7635988;23;20025;-76
2022/04/16 01:12:30;;;;;;;12.13;8.35;;;;;;;;;;7647778;23;20068;-78
2022/04/16 01:15:34;;;;;;;12.10;8.48;;;;;;;;;;7635293;23;20014;-78
2022/04/16 01:18:45;;;;;;;10.98;8.05;;;;;;;;;;7635459;23;20017;-79
2022/04/16 01:21:52;;;;;;;13.70;8.68;;;;;;;;;;7647903;23;20032;-76
2022/04/16 01:24:56;;;;;;;12.73;8.13;;;;;;;;;;7634116;23;20018;-76
2022/04/16 01:28:00;;;;;;;13.15;8.63;;;;;;;;;;7634490;23;20022;-78
2022/04/16 01:31:03;;;;;;;14.15;9.57;;;;;;;;;;7636032;23;20024;-78
2022/04/16 01:34:07;;;;;;;15.27;9.55;;;;;;;;;;7635209;23;20515;-78
2022/04/16 01:37:10;;;;;;;13.07;8.85;;;;;;;;;;7635259;23;20091;-78
2022/04/16 01:40:17;;;;;;;13.70;9.48;;;;;;;;;;7647700;23;20048;-77
2022/04/16 01:43:22;;;;;;;14.45;9.70;;;;;;;;;;7647641;23;20092;-76
2022/04/16 01:46:25;;;;;;;13.63;9.65;;;;;;;;;;7635357;23;20243;-76
2022/04/16 01:49:29;;;;;;;14.77;9.63;;;;;;;;;;7636706;23;20445;-76
2022/04/16 01:52:32;;;;;;;14.70;10.25;;;;;;;;;;7635718;23;20357;-76
2022/04/16 01:55:36;;;;;;;15.90;10.90;;;;;;;;;;7634726;23;20092;-77
2022/04/16 01:58:43;;;;;;;15.95;11.23;;;;;;;;;;7645685;23;20033;-76
2022/04/16 02:01:47;;;;;;;15.85;10.30;;;;;;;;;;7635537;23;20441;-76
2022/04/16 02:04:54;;;;;;;18.60;12.10;;;;;;;;;;7638910;23;20028;-76
2022/04/16 02:07:57;;;;;;;16.80;10.80;;;;;;;;;;7647887;23;20025;-75
2022/04/16 02:11:01;;;;;;;16.13;10.93;;;;;;;;;;7636636;23;20028;-77
2022/04/16 02:14:04;;;;;;;16.27;10.80;;;;;;;;;;7635538;23;20049;-76
2022/04/16 02:17:07;;;;;;;19.55;12.02;;;;;;;;;;7636013;23;20021;-76
2022/04/16 02:20:11;;;;;;;15.73;10.98;;;;;;;;;;7635349;23;20637;-76
2022/04/16 02:23:14;;;;;;;15.57;10.85;;;;;;;;;;7636433;23;20018;-76
2022/04/16 02:26:20;;;;;;;16.90;11.00;;;;;;;;;;7635040;23;20041;-77
2022/04/16 02:29:23;;;;;;;15.23;10.57;;;;;;;;;;7645691;23;20018;-76
2022/04/16 02:32:26;;;;;;;16.58;9.93;;;;;;;;;;7636138;23;20022;-77
2022/04/16 02:35:29;;;;;;;15.30;10.52;;;;;;;;;;7635021;23;20028;-77
2022/04/16 02:38:32;;;;;;;13.90;9.55;;;;;;;;;;7635941;23;20024;-77
2022/04/16 02:41:38;;;;;;;13.30;9.63;;;;;;;;;;7645494;23;20021;-76
2022/04/16 02:48:07;;;;;;;12.63;9.32;;;;;;;;;;7647443;23;20025;-76
2022/04/16 02:51:13;;;;;;;13.57;9.88;;;;;;;;;;7645035;23;20033;-76
2022/04/16 02:54:16;;;;;;;12.63;8.75;;;;;;;;;;7635577;23;20018;-78
2022/04/16 02:57:20;;;;;;;12.73;9.07;;;;;;;;;;7636303;23;20017;-77
2022/04/16 03:00:24;;;;;;;13.85;8.75;;;;;;;;;;7635323;23;20352;-76
2022/04/16 03:03:28;;;;;;;15.65;9.50;;;;;;;;;;7634360;23;20091;-77
2022/04/16 03:06:32;;;;;;;13.95;8.80;;;;;;;;;;7636153;23;20022;-76
2022/04/16 03:09:35;;;;;;;12.65;8.68;;;;;;;;;;7634387;23;20036;-78
2022/04/16 03:12:43;;;;;;;11.35;7.60;;;;;;;;;;7644840;23;20026;-77
2022/04/16 03:19:06;;;;;;;12.07;8.57;;;;;;;;;;7646697;23;20018;-78
2022/04/16 03:22:10;;;;;;;13.70;8.07;;;;;;;;;;7633783;23;20028;-77
2022/04/16 03:25:13;;;;;;;11.43;7.82;;;;;;;;;;7632365;23;20024;-77
2022/04/16 03:28:20;;;;;;;11.68;7.25;;;;;;;;;;7648166;23;20022;-77
2022/04/16 03:31:24;;;;;;;12.35;7.50;;;;;;;;;;7633991;23;20017;-76
2022/04/16 03:34:27;;;;;;;8.57;6.78;;;;;;;;;;7634063;23;20092;-77
2022/04/16 03:37:30;;;;;;;12.38;7.50;;;;;;;;;;7635242;23;20018;-77
2022/04/16 03:40:32;;;;;;;10.38;7.47;;;;;;;;;;7635801;23;20349;-78
2022/04/16 03:43:37;;;;;;;9.68;7.38;;;;;;;;;;7633085;23;20064;-77
2022/04/16 03:46:40;;;;;;;13.20;6.90;;;;;;;;;;7632477;23;20022;-77
2022/04/16 03:49:43;;;;;;;9.02;6.68;;;;;;;;;;7635783;23;20496;-77
2022/04/16 03:52:46;;;;;;;9.93;6.78;;;;;;;;;;7635275;23;20378;-77
2022/04/16 04:02:33;;;;;;;9.48;6.07;;;;;;;;;;7646392;23;20464;-79
2022/04/16 04:05:41;;;;;;;9.70;6.65;;;;;;;;;;7635710;23;20017;-78
2022/04/16 04:08:44;;;;;;;9.13;6.53;;;;;;;;;;7631912;23;20028;-78
2022/04/16 04:11:47;;;;;;;10.20;6.80;;;;;;;;;;7635619;23;20344;-77
2022/04/16 04:14:52;;;;;;;9.75;6.70;;;;;;;;;;7634184;23;20014;-77
2022/04/16 04:17:55;;;;;;;11.23;6.93;;;;;;;;;;7634116;23;20017;-77
2022/04/16 04:20:58;;;;;;;8.50;6.65;;;;;;;;;;7634825;23;20022;-77
2022/04/16 04:24:00;;;;;;;10.55;6.53;;;;;;;;;;7633932;23;20044;-76
2022/04/16 04:27:04;;;;;;;8.95;6.35;;;;;;;;;;7635462;23;20026;-76
2022/04/16 04:30:09;;;;;;;9.02;6.50;;;;;;;;;;7632089;23;20021;-76
2022/04/16 04:33:12;;;;;;;8.25;6.55;;;;;;;;;;7646364;23;20024;-77
2022/04/16 04:36:15;;;;;;;7.78;6.53;;;;;;;;;;7635255;23;20068;-78
2022/04/16 04:39:18;;;;;;;9.20;6.35;;;;;;;;;;7632265;23;20449;-77
2022/04/16 04:42:24;;;;;;;9.05;6.20;;;;;;;;;;7633420;23;20021;-77
2022/04/16 04:45:31;;;;;;;10.90;6.00;;;;;;;;;;7646092;23;20017;-77
2022/04/16 04:48:34;;;;;;;9.27;6.65;;;;;;;;;;7632915;23;20096;-77
2022/04/16 04:51:40;;;;;;;8.80;6.25;;;;;;;;;;7644386;23;20018;-78
2022/04/16 04:54:43;;;;;;;8.65;6.65;;;;;;;;;;7636092;23;20021;-76
2022/04/16 04:57:46;;;;;;;8.57;6.00;;;;;;;;;;7637555;23;20385;-76
2022/04/16 05:00:51;;;;;;;9.07;6.80;;;;;;;;;;7635729;23;20044;-76
2022/04/16 05:03:54;;;;;;;9.25;6.47;;;;;;;;;;7635441;23;20021;-78
2022/04/16 05:06:59;;;;;;;10.25;7.00;;;;;;;;;;7638206;23;20028;-77
2022/04/16 05:10:02;;;;;;;8.68;6.35;;;;;;;;;;7636674;23;20022;-78
2022/04/16 05:13:07;;;;;;;8.68;6.18;;;;;;;;;;7648282;23;20021;-79
2022/04/16 05:16:12;;;;;;;8.70;5.72;;;;;;;;;;7635849;23;20319;-77
2022/04/16 05:19:16;;;;;;;8.18;5.43;;;;;;;;;;7649318;23;20021;-79
2022/04/16 05:22:19;;;;;;;10.00;5.32;;;;;;;;;;7633813;23;20021;-80
2022/04/16 05:25:22;;;;;;;8.32;5.30;;;;;;;;;;7635797;23;20017;-85
2022/04/16 05:28:25;;;;;;;8.52;5.30;;;;;;;;;;7637313;23;20312;-81
2022/04/16 05:31:30;;;;;;;9.70;6.03;;;;;;;;;;7635633;23;20064;-84
2022/04/16 05:34:33;;;;;;;8.43;5.45;;;;;;;;;;7639869;23;20318;-82
2022/04/16 05:37:37;;;;;;;8.20;5.68;;;;;;;;;;7635604;23;20017;-82
2022/04/16 05:40:40;;;;;;;9.27;5.88;;;;;;;;;;7635150;23;20026;-83
2022/04/16 05:43:46;;;;;;;7.90;5.72;;;;;;;;;;7645734;23;20502;-82
2022/04/16 05:46:51;;;;;;;8.20;5.63;;;;;;;;;;7635292;23;20021;-81
2022/04/16 05:49:54;;;;;;;7.88;6.03;;;;;;;;;;7649031;23;20045;-79
2022/04/16 05:52:58;;;;;;;8.27;5.40;;;;;;;;;;7633296;23;20025;-80
2022/04/16 05:56:00;;;;;;;8.68;5.82;;;;;;;;;;7636175;23;20355;-79
2022/04/16 05:59:04;;;;;;;7.85;5.28;;;;;;;;;;7635166;23;20018;-77
2022/04/16 06:02:10;;;;;;;7.95;5.63;;;;;;;;;;7634489;23;20021;-81
2022/04/16 06:05:13;;;;;;;8.25;5.20;;;;;;;;;;7637207;23;20024;-80
2022/04/16 06:08:16;;;;;;;7.28;4.80;;;;;;;;;;7637222;23;20024;-81
2022/04/16 06:11:20;;;;;;;7.50;4.88;;;;;;;;;;7636457;23;20675;-80
2022/04/16 06:14:23;;;;;;;7.18;5.28;;;;;;;;;;7634450;23;20408;-79
2022/04/16 06:17:27;;;;;;;7.95;4.82;;;;;;;;;;7636144;23;20029;-81
2022/04/16 06:20:30;;;;;;;7.03;4.80;;;;;;;;;;7634622;23;20028;-79
2022/04/16 06:23:33;;;;;;;9.70;5.28;;;;;;;;;;7634914;23;20017;-76
2022/04/16 06:26:38;;;;;;;7.20;5.07;;;;;;;;;;7633932;23;20020;-78
2022/04/16 06:29:41;;;;;;;7.13;5.03;;;;;;;;;;7634690;23;20401;-78
2022/04/16 06:32:45;;;;;;;7.15;4.85;;;;;;;;;;7635937;23;20045;-79
2022/04/16 06:35:49;;;;;;;7.93;5.03;;;;;;;;;;7632577;23;20460;-80
2022/04/16 06:38:52;;;;;;;6.53;4.82;;;;;;;;;;7635869;23;20048;-80
2022/04/16 06:41:58;;;;;;;7.30;5.00;;;;;;;;;;7646757;23;20456;-80
2022/04/16 06:45:02;;;;;;;7.25;4.93;;;;;;;;;;7634220;23;20017;-80
2022/04/16 06:48:07;;;;;;;8.02;4.90;;;;;;;;;;7635405;23;20334;-79
2022/04/16 06:51:10;;;;;;;7.93;5.28;;;;;;;;;;7634988;23;20017;-79
2022/04/16 06:54:13;;;;;;;7.95;5.15;;;;;;;;;;7635420;23;20047;-78
2022/04/16 06:57:18;;;;;;;7.05;4.55;;;;;;;;;;7634645;23;20491;-77
2022/04/16 07:00:21;;;;;;;6.20;4.88;;;;;;;;;;7635990;23;20048;-79
2022/04/16 07:03:25;;;;;;;7.55;4.95;;;;;;;;;;7635442;23;20025;-77
2022/04/16 07:06:28;;;;;;;6.93;5.20;;;;;;;;;;7632240;23;20021;-78
2022/04/16 07:09:38;;;;;;;7.05;4.38;;;;;;;;;;7647677;23;20014;-78
2022/04/16 07:12:43;;;;;;;6.78;4.53;;;;;;;;;;7646186;23;20084;-79
2022/04/16 07:15:46;;;;;;;6.38;4.85;;;;;;;;;;7634784;23;20671;-77
2022/04/16 07:18:51;;;;;;;5.82;4.32;;;;;;;;;;7632195;23;20475;-79
2022/04/16 07:21:54;;;;;;;13.50;6.85;;;;;;;;;;7633888;23;20028;-80
2022/04/16 07:24:57;;;;;;;7.50;4.85;;;;;;;;;;7635255;23;20024;-79
2022/04/16 07:28:00;;;;;;;6.18;4.78;;;;;;;;;;7632174;23;20387;-78
2022/04/16 07:31:03;;;;;;;10.82;4.45;;;;;;;;;;7635399;23;20017;-78
2022/04/16 07:34:08;;;;;;;5.57;4.22;;;;;;;;;;7635789;23;20096;-78
2022/04/16 07:37:11;;;;;;;5.55;4.35;;;;;;;;;;7634245;23;20017;-78
2022/04/16 07:40:13;;;;;;;5.60;4.00;;;;;;;;;;7632673;23;20028;-78
2022/04/16 07:43:17;;;;;;;5.63;4.47;;;;;;;;;;7634000;23;20029;-80
2022/04/16 07:46:24;;;;;;;5.35;4.57;;;;;;;;;;7645809;23;20326;-79
2022/04/16 07:49:29;;;;;;;4.82;3.70;;;;;;;;;;7644761;23;20318;-79
2022/04/16 07:52:32;;;;;;;6.93;3.90;;;;;;;;;;7633775;23;20049;-81
2022/04/16 07:55:37;;;;;;;;;;;;;;;;;;7646450;23;20032;-79
2022/04/16 07:58:40;;;;;;;6.43;3.80;;;;;;;;;;7633941;23;19928;-78
2022/04/16 08:01:43;;;;;;;4.70;3.47;;;;;;;;;;7634501;23;20018;-76
2022/04/16 08:04:47;;;;;;;4.55;3.63;;;;;;;;;;7633452;23;20014;-76
2022/04/16 08:07:50;;;;;;;5.50;4.23;;;;;;;;;;7634169;23;20452;-75
2022/04/16 08:10:53;;;;;;;4.65;3.47;;;;;;;;;;7631797;23;20343;-76
2022/04/16 08:13:57;;;;;;;4.55;3.47;;;;;;;;;;7633512;23;20025;-77
2022/04/16 08:17:00;;;;;;;4.45;3.70;;;;;;;;;;7635010;23;20390;-79
2022/04/16 08:20:05;;;;;;;5.40;4.00;;;;;;;;;;7633603;23;20021;-77
2022/04/16 08:23:11;;;;;;;5.38;3.70;;;;;;;;;;7645533;23;20021;-78
2022/04/16 08:26:14;;;;;;;5.30;3.55;;;;;;;;;;7633031;23;20392;-79
2022/04/16 08:29:17;;;;;;;3.92;3.30;;;;;;;;;;7633716;23;20032;-74
2022/04/16 08:32:20;;;;;;;4.63;3.58;;;;;;;;;;7634742;23;20029;-77
2022/04/16 08:35:27;;;;;;;5.50;3.80;;;;;;;;;;7637237;23;20393;-77
2022/04/16 08:38:30;;;;;;;4.93;3.20;;;;;;;;;;7635379;23;20028;-78
2022/04/16 08:41:36;;;;;;;5.30;3.20;;;;;;;;;;7646281;23;20045;-78
2022/04/16 08:44:42;;;;;;;4.03;2.90;;;;;;;;;;7647976;23;20017;-78
2022/04/16 08:47:45;;;;;;;4.13;2.97;;;;;;;;;;7635899;23;20017;-77
2022/04/16 08:50:49;;;;;;;4.97;2.85;;;;;;;;;;7635886;23;20022;-77
2022/04/16 08:53:52;;;;;;;5.38;3.28;;;;;;;;;;7635884;23;20340;-77
2022/04/16 08:56:56;;;;;;;3.80;2.88;;;;;;;;;;7637181;23;20495;-77
2022/04/16 08:59:59;;;;;;;3.92;2.80;;;;;;;;;;7636787;23;20120;-78
2022/04/16 09:03:03;;;;;;;2.97;2.40;;;;;;;;;;7635531;23;20017;-77
2022/04/16 09:06:08;;;;;;;3.00;2.70;;;;;;;;;;7636331;23;20448;-77
2022/04/16 09:09:13;;;;;;;4.80;2.50;;;;;;;;;;7646978;23;20091;-78
2022/04/16 09:12:17;;;;;;;2.40;2.20;;;;;;;;;;7635830;23;20072;-76
2022/04/16 09:15:22;;;;;;;3.40;2.40;;;;;;;;;;7634613;23;20021;-76
2022/04/16 09:22:09;;;;;;;3.15;2.22;;;;;;;;;;7696543;23;20325;-76
2022/04/16 09:25:16;;;;;;;11.63;7.07;;;;;;;;;;7763489;23;20467;-76
2022/04/16 09:28:20;;;;;;;3.53;2.60;;;;;;;;;;7762694;23;20026;-76
2022/04/16 09:31:27;;;;;;;3.95;2.78;;;;;;;;;;7752612;22;20359;-78
2022/04/16 09:34:32;;;;;;;2.42;2.03;;;;;;;;;;7763647;23;20774;-77
2022/04/16 09:37:36;;;;;;;2.70;2.28;;;;;;;;;;7751769;22;20020;-75
2022/04/16 09:40:46;;;;;;;3.15;2.35;;;;;;;;;;7762896;23;20423;-77
2022/04/16 09:43:49;;;;;;;2.83;2.20;;;;;;;;;;7765206;22;20028;-81
2022/04/16 09:46:52;;;;;;;2.58;2.38;;;;;;;;;;7752715;22;20023;-76
2022/04/16 09:49:56;;;;;;;3.60;2.85;;;;;;;;;;7751576;22;20016;-78
2022/04/16 09:53:02;;;;;;;17.38;11.00;;;;;;;;;;7714962;23;20020;-76
2022/04/16 09:56:07;;;;;;;3.17;2.53;;;;;;;;;;7725614;23;20332;-78
2022/04/16 09:59:12;;;;;;;3.00;2.50;;;;;;;;;;7712677;23;20313;-76
2022/04/16 10:02:16;;;;;;;80.05;50.55;;;;;;;;;;7714639;23;20016;-77
2022/04/16 10:05:20;;;;;;;11.80;7.47;;;;;;;;;;7714604;23;20016;-78
2022/04/16 10:08:27;;;;;;;3.60;2.40;;;;;;;;;;7712697;23;20027;-76
2022/04/16 10:15:06;;;;;;;2.53;1.95;;;;;;;;;;7637644;23;20022;-76
2022/04/16 10:18:10;;;;;;;2.40;2.10;;;;;;;;;;7727017;23;20022;-76
2022/04/16 10:21:16;;;;;;;2.42;1.95;;;;;;;;;;7719469;23;20459;-76
2022/04/16 10:24:26;;;;;;;3.30;2.47;;;;;;;;;;7712066;23;20047;-78
2022/04/16 10:27:30;;;;;;;3.33;2.10;;;;;;;;;;7726886;23;20262;-76
2022/04/16 10:30:37;;;;;;;2.20;2.00;;;;;;;;;;7714371;23;20111;-76
2022/04/16 10:33:40;;;;;;;4.30;1.90;;;;;;;;;;7725863;23;20021;-76
2022/04/16 10:36:51;;;;;;;5.63;2.13;;;;;;;;;;7714382;23;20027;-75
2022/04/16 10:39:56;;;;;;;2.97;1.83;;;;;;;;;;7725246;23;20075;-75
2022/04/16 10:43:00;;;;;;;2.58;1.83;;;;;;;;;;7714168;23;20028;-77
2022/04/16 10:46:04;;;;;;;2.22;1.73;;;;;;;;;;7713186;23;20448;-76
2022/04/16 10:49:08;;;;;;;3.60;1.87;;;;;;;;;;7714671;23;20103;-77
2022/04/16 10:52:20;;;;;;;14.48;7.03;;;;;;;;;;7715077;23;20349;-78
2022/04/16 10:55:30;;;;;;;18.30;7.93;;;;;;;;;;7724657;23;20021;-77
2022/04/16 10:58:36;;;;;;;8.38;5.20;;;;;;;;;;7724485;23;20051;-76
2022/04/16 11:01:39;;;;;;;14.20;8.35;;;;;;;;;;7714025;23;20020;-76
2022/04/16 11:04:44;;;;;;;;;;;;;;;;;;7727273;23;20021;-74
2022/04/16 11:07:47;;;;;;;5.95;3.20;;;;;;;;;;7712743;23;19923;-77
2022/04/16 11:10:56;;;;;;;11.35;4.90;;;;;;;;;;7710916;23;20024;-77
2022/04/16 11:13:59;;;;;;;19.15;9.05;;;;;;;;;;7722117;23;20017;-76
2022/04/16 11:17:05;;;;;;;30.08;13.82;;;;;;;;;;7721204;23;20375;-75
2022/04/16 11:20:08;;;;;;;17.10;8.93;;;;;;;;;;7710092;23;20040;-75
2022/04/16 11:23:13;;;;;;;;;;;;;;;;;;7710963;23;20017;-75
2022/04/16 11:36:26;;;;;;;20.55;10.25;;;;;;;;;;7725919;23;20339;-75
2022/04/16 11:39:30;;;;;;;9.23;4.78;;;;;;;;;;7713796;23;20071;-75
2022/04/16 11:42:34;;;;;;;32.58;13.10;;;;;;;;;;7712463;23;20091;-75
2022/04/16 11:45:44;;;;;;;12.90;6.63;;;;;;;;;;7713628;23;20044;-75
2022/04/16 11:48:48;;;;;;;2.38;2.17;;;;;;;;;;7726230;23;20028;-75
2022/04/16 11:51:51;;;;;;;4.40;3.08;;;;;;;;;;7710283;23;20447;-74
2022/04/16 11:55:01;;;;;;;6.78;3.63;;;;;;;;;;7712969;23;20339;-75
2022/04/16 11:58:08;;;;;;;6.47;3.92;;;;;;;;;;7724447;23;20090;-75
2022/04/16 12:01:11;;;;;;;2.30;1.73;;;;;;;;;;7726041;23;20042;-75
2022/04/16 12:04:13;;;;;;;4.85;2.95;;;;;;;;;;7713274;23;20243;-75
2022/04/16 12:07:17;;;;;;;3.00;1.42;;;;;;;;;;7714505;23;20017;-76
2022/04/16 12:10:21;;;;;;;4.45;2.58;;;;;;;;;;7714550;23;20020;-76
2022/04/16 12:13:34;;;;;;;2.03;1.52;;;;;;;;;;7713664;23;20020;-74
2022/04/16 12:16:37;;;;;;;2.30;1.67;;;;;;;;;;7726244;23;20017;-75
2022/04/16 12:19:42;;;;;;;1.67;1.45;;;;;;;;;;7715303;23;20016;-75
2022/04/16 12:22:48;;;;;;;5.07;1.58;;;;;;;;;;7716703;23;20024;-74
2022/04/16 12:26:02;;;;;;;1.33;1.20;;;;;;;;;;7714830;23;20016;-76
2022/04/16 12:29:10;;;;;;;3.95;1.38;;;;;;;;;;7726650;23;20325;-76
2022/04/16 12:32:23;;;;;;;1.70;1.20;;;;;;;;;;7727523;23;20021;-75
2022/04/16 12:35:26;;;;;;;3.38;1.30;;;;;;;;;;7724831;23;20016;-75
2022/04/16 12:38:30;;;;;;;1.30;1.20;;;;;;;;;;7711589;23;20016;-76
2022/04/16 12:41:32;;;;;;;1.23;0.95;;;;;;;;;;7712967;23;20020;-75
2022/04/16 12:44:39;;;;;;;2.05;1.10;;;;;;;;;;7724013;23;20383;-76
2022/04/16 12:47:42;;;;;;;1.98;1.00;;;;;;;;;;7712445;23;20044;-76
2022/04/16 12:50:45;;;;;;;4.78;1.15;;;;;;;;;;7715362;23;20445;-77
2022/04/16 12:53:50;;;;;;;;;;;;;;;;;;7726967;23;20470;-76
2022/04/16 12:56:53;;;;;;;1.15;1.05;;;;;;;;;;7715069;23;19919;-76
2022/04/16 12:59:58;;;;;;;2.80;1.45;;;;;;;;;;7713264;23;20016;-76
2022/04/16 13:03:01;;;;;;;4.07;1.42;;;;;;;;;;7715551;23;20028;-75
2022/04/16 13:06:03;;;;;;;1.35;1.13;;;;;;;;;;7715404;23;20145;-76
2022/04/16 13:09:06;;;;;;;2.92;1.30;;;;;;;;;;7712448;23;20016;-77
2022/04/16 13:12:09;;;;;;;1.17;1.02;;;;;;;;;;7715473;23;20429;-77
2022/04/16 13:15:16;;;;;;;2.80;1.02;;;;;;;;;;7725620;23;20021;-77
2022/04/16 13:18:21;;;;;;;1.10;1.00;;;;;;;;;;7725268;23;20451;-77
2022/04/16 13:21:24;;;;;;;3.10;1.00;;;;;;;;;;7713160;23;20321;-77
2022/04/16 13:24:27;;;;;;;0.90;0.90;;;;;;;;;;7711053;23;20023;-76
2022/04/16 13:27:30;;;;;;;0.70;0.70;;;;;;;;;;7711458;23;20017;-77
2022/04/16 13:30:37;;;;;;;0.80;0.77;;;;;;;;;;7724308;23;20017;-77
2022/04/16 13:33:40;;;;;;;0.90;0.90;;;;;;;;;;7712589;23;20021;-77
2022/04/16 13:36:43;;;;;;;2.35;0.77;;;;;;;;;;7711324;23;20028;-78
2022/04/16 13:43:09;;;;;;;1.58;0.80;;;;;;;;;;7721808;23;20016;-79
2022/04/16 13:46:14;;;;;;;;;;;;;;;;;;7720018;23;20031;-78
2022/04/16 13:49:18;;;;;;;0.75;0.75;;;;;;;;;;7709461;23;19970;-78
2022/04/16 13:52:21;;;;;;;2.03;0.67;;;;;;;;;;7707491;23;20347;-79
2022/04/16 13:55:27;;;;;;;;;;;;;;;;;;7723215;23;20241;-78
2022/04/16 13:58:30;;;;;;;3.75;0.80;;;;;;;;;;7708240;23;19916;-79
2022/04/16 14:01:35;;;;;;;1.88;1.10;;;;;;;;;;7708451;23;20163;-78
2022/04/16 14:08:08;;;;;;;1.13;1.02;;;;;;;;;;7710307;23;20347;-79
2022/04/16 14:11:12;;;;;;;0.93;0.93;;;;;;;;;;7711180;23;20035;-78
2022/04/16 14:14:14;;;;;;;3.72;1.30;;;;;;;;;;7710659;23;20447;-78
2022/04/16 14:17:18;;;;;;;0.93;0.93;;;;;;;;;;7712479;23;20013;-79
2022/04/16 14:20:22;;;;;;;1.20;0.93;;;;;;;;;;7710681;23;20448;-78
2022/04/16 14:23:26;;;;;;;1.20;1.10;;;;;;;;;;7709428;23;20024;-78
2022/04/16 14:26:29;;;;;;;4.30;1.35;;;;;;;;;;7709102;23;20026;-78
2022/04/16 14:29:33;;;;;;;7.32;1.60;;;;;;;;;;7708825;23;20044;-78
2022/04/16 14:32:38;;;;;;;3.65;1.35;;;;;;;;;;7721971;23;20024;-78
2022/04/16 14:35:47;;;;;;;2.83;1.50;;;;;;;;;;7721478;23;20063;-78
2022/04/16 14:38:50;;;;;;;4.65;2.10;;;;;;;;;;7722967;23;20048;-79
2022/04/16 14:41:53;;;;;;;4.32;2.80;;;;;;;;;;7708658;23;20016;-78
2022/04/16 14:44:57;;;;;;;6.50;3.75;;;;;;;;;;7711037;23;20180;-78
2022/04/16 14:48:00;;;;;;;2.55;2.22;;;;;;;;;;7710513;23;20016;-79
2022/04/16 14:51:07;;;;;;;4.45;3.00;;;;;;;;;;7716437;23;20521;-78
2022/04/16 14:54:11;;;;;;;5.00;3.00;;;;;;;;;;7711087;23;20452;-78
2022/04/16 14:57:14;;;;;;;4.18;3.50;;;;;;;;;;7708804;23;20139;-79
2022/04/16 15:00:17;;;;;;;5.90;3.80;;;;;;;;;;7708917;23;20023;-78
2022/04/16 15:03:19;;;;;;;7.45;4.30;;;;;;;;;;7708846;23;20100;-78
2022/04/16 15:06:24;;;;;;;6.15;4.43;;;;;;;;;;7709104;23;20016;-78
2022/04/16 15:09:27;;;;;;;5.85;3.85;;;;;;;;;;7708734;23;20016;-78
2022/04/16 15:12:30;;;;;;;5.95;3.88;;;;;;;;;;7707543;23;20016;-77
2022/04/16 15:15:35;;;;;;;6.60;4.03;;;;;;;;;;7721542;23;20020;-76
2022/04/16 15:18:38;;;;;;;5.00;3.65;;;;;;;;;;7710445;23;20017;-77
2022/04/16 15:21:45;;;;;;;7.15;4.55;;;;;;;;;;7715372;23;20305;-76
2022/04/16 15:24:48;;;;;;;5.97;4.18;;;;;;;;;;7710458;23;20355;-76
2022/04/16 15:27:50;;;;;;;7.65;4.18;;;;;;;;;;7711218;23;20020;-74
2022/04/16 15:30:53;;;;;;;8.82;5.00;;;;;;;;;;7708596;23;20020;-74
2022/04/16 15:34:00;;;;;;;7.25;4.93;;;;;;;;;;7709710;23;20017;-76
2022/04/16 15:37:05;;;;;;;6.68;4.72;;;;;;;;;;7721183;23;20016;-75
2022/04/16 15:40:08;;;;;;;6.68;4.57;;;;;;;;;;7708079;23;20016;-73
2022/04/16 15:43:13;;;;;;;8.95;4.63;;;;;;;;;;7722012;23;20020;-75
2022/04/16 15:46:16;;;;;;;6.32;4.45;;;;;;;;;;7709002;23;20060;-75
2022/04/16 15:49:22;;;;;;;4.90;3.80;;;;;;;;;;7720825;23;20016;-76
2022/04/16 15:52:29;;;;;;;4.80;3.60;;;;;;;;;;7710773;23;20036;-74
2022/04/16 15:55:35;;;;;;;7.20;4.43;;;;;;;;;;7707640;23;20021;-76
2022/04/16 15:58:38;;;;;;;8.45;5.38;;;;;;;;;;7710678;23;20305;-75
2022/04/16 16:01:41;;;;;;;6.10;4.20;;;;;;;;;;7709841;23;20017;-75
2022/04/16 16:04:56;;;;;;;7.47;3.90;;;;;;;;;;7720080;23;20031;-75
2022/04/16 16:08:00;;;;;;;8.80;6.15;;;;;;;;;;7722464;23;20028;-75
2022/04/16 16:11:05;;;;;;;7.35;5.55;;;;;;;;;;7722317;23;20317;-75
2022/04/16 16:14:08;;;;;;;5.65;4.40;;;;;;;;;;7709890;23;20027;-76
2022/04/16 16:17:13;;;;;;;4.82;4.00;;;;;;;;;;7721789;23;20017;-75
2022/04/16 16:20:17;;;;;;;6.93;4.55;;;;;;;;;;7709893;23;20055;-75
2022/04/16 16:23:22;;;;;;;5.72;4.45;;;;;;;;;;7709506;23;20116;-75
2022/04/16 16:26:25;;;;;;;6.45;4.47;;;;;;;;;;7708010;23;20017;-74
2022/04/16 16:29:30;;;;;;;6.97;4.38;;;;;;;;;;7722385;23;20344;-75
2022/04/16 16:32:33;;;;;;;8.82;4.72;;;;;;;;;;7707993;23;20055;-75
2022/04/16 16:35:37;;;;;;;4.80;3.75;;;;;;;;;;7709876;23;20028;-75
2022/04/16 16:38:41;;;;;;;8.63;4.25;;;;;;;;;;7707701;23;20020;-74
2022/04/16 16:41:44;;;;;;;7.05;3.75;;;;;;;;;;7709686;23;20027;-75
2022/04/16 16:44:47;;;;;;;8.05;4.35;;;;;;;;;;7709798;23;20391;-75
2022/04/16 16:47:50;;;;;;;5.60;3.83;;;;;;;;;;7708930;23;20032;-75
2022/04/16 16:50:54;;;;;;;7.65;4.50;;;;;;;;;;7710110;23;20021;-75
2022/04/16 16:53:58;;;;;;;5.82;4.47;;;;;;;;;;7711977;23;20025;-75
2022/04/16 16:57:03;;;;;;;5.95;4.70;;;;;;;;;;7710009;23;20051;-74
2022/04/16 17:00:07;;;;;;;6.85;4.65;;;;;;;;;;7709757;23;20024;-75
2022/04/16 17:06:33;;;;;;;9.30;4.80;;;;;;;;;;7722626;23;20023;-74
2022/04/16 17:09:37;;;;;;;6.15;4.63;;;;;;;;;;7709390;23;20028;-74
2022/04/16 17:12:40;;;;;;;6.10;4.47;;;;;;;;;;7711920;23;20021;-75
2022/04/16 17:19:06;;;;;;;7.45;4.60;;;;;;;;;;7724982;23;19924;-75
2022/04/16 17:22:10;;;;;;;7.00;4.78;;;;;;;;;;7710701;23;20020;-73
2022/04/16 17:25:15;;;;;;;6.72;4.90;;;;;;;;;;7710413;23;20388;-75
2022/04/16 17:28:18;;;;;;;6.88;5.07;;;;;;;;;;7720652;23;20025;-74
2022/04/16 17:31:21;;;;;;;28.23;15.88;;;;;;;;;;7711462;23;20130;-76
2022/04/16 17:34:27;;;;;;;6.93;4.85;;;;;;;;;;7722473;23;20021;-76
2022/04/16 17:37:30;;;;;;;6.88;4.82;;;;;;;;;;7709806;23;20020;-75
2022/04/16 17:40:35;;;;;;;6.30;4.28;;;;;;;;;;7709342;23;20016;-75
2022/04/16 17:43:40;;;;;;;3.85;2.95;;;;;;;;;;7722926;23;20023;-75
2022/04/16 17:46:43;;;;;;;3.47;2.60;;;;;;;;;;7711615;23;20452;-75
2022/04/16 17:49:46;;;;;;;3.83;2.97;;;;;;;;;;7711293;23;20444;-76
2022/04/16 17:52:50;;;;;;;2.88;2.10;;;;;;;;;;7708251;23;20440;-75
2022/04/16 17:55:54;;;;;;;3.78;2.20;;;;;;;;;;7707024;23;20090;-76
2022/04/16 17:58:59;;;;;;;2.63;2.10;;;;;;;;;;7718520;23;20024;-76
2022/04/16 18:02:02;;;;;;;2.67;2.03;;;;;;;;;;7705389;23;20018;-76
2022/04/16 18:05:07;;;;;;;3.90;2.15;;;;;;;;;;7705620;23;20043;-76
2022/04/16 18:08:10;;;;;;;5.72;2.00;;;;;;;;;;7706422;23;20344;-75
2022/04/16 18:11:14;;;;;;;2.75;2.03;;;;;;;;;;7707080;23;20444;-73
2022/04/16 18:14:17;;;;;;;2.22;2.03;;;;;;;;;;7709624;23;20075;-75
2022/04/16 18:17:20;;;;;;;2.95;2.20;;;;;;;;;;7710025;23;20032;-76
2022/04/16 18:20:24;;;;;;;3.40;2.30;;;;;;;;;;7710837;23;20095;-75
2022/04/16 18:23:28;;;;;;;3.20;2.50;;;;;;;;;;7708222;23;20021;-76
2022/04/16 18:26:34;;;;;;;3.33;2.60;;;;;;;;;;7709959;23;20021;-76
2022/04/16 18:29:38;;;;;;;3.83;2.75;;;;;;;;;;7721741;23;20020;-76
2022/04/16 18:32:44;;;;;;;3.00;2.20;;;;;;;;;;7722852;23;20537;-76
2022/04/16 18:35:47;;;;;;;4.18;3.10;;;;;;;;;;7709757;23;20419;-76
2022/04/16 18:38:52;;;;;;;4.65;2.90;;;;;;;;;;7709952;23;20020;-76
2022/04/16 18:41:56;;;;;;;3.78;2.78;;;;;;;;;;7709707;23;20016;-76
2022/04/16 18:44:59;;;;;;;5.30;3.22;;;;;;;;;;7710418;23;20021;-74
2022/04/16 18:48:03;;;;;;;4.65;3.30;;;;;;;;;;7711340;23;20021;-76
2022/04/16 18:51:06;;;;;;;3.67;3.15;;;;;;;;;;7711090;23;20031;-76
2022/04/16 18:54:13;;;;;;;6.30;3.45;;;;;;;;;;7723427;23;20017;-74
2022/04/16 18:57:17;;;;;;;5.28;3.17;;;;;;;;;;7708437;23;20021;-76
2022/04/16 19:06:51;;;;;;;4.07;3.13;;;;;;;;;;7710716;23;20349;-75
2022/04/16 19:07:05;;;;;;;4.50;3.10;;;;;;;;;;7722864;23;20020;-76
2022/04/16 19:10:08;;;;;;;3.15;2.65;;;;;;;;;;7708973;23;20044;-76